Time;durP1;ratioP1;P1;durP2;ratioP2;P2;SDS_P1;SDS_P2;PMS_P1;PMS_P2;Temp;Humidity;BMP_temperature;BMP_pressure;BME280_temperature;BME280_humidity;BME280_pressure;Samples;Min_cycle;Max_cycle;Signal;HPM_P1;HPM_P2
2022/10/27 00:02:06;;;;;;;10.43;2.60;;;9.60;99.90;;;;;;4990203;28;20034;-80
2022/10/27 00:04:32;;;;;;;;;;;9.40;99.90;;;;;;4996432;28;20045;-80
2022/10/27 00:06:58;;;;;;;1.60;1.50;;;9.00;99.90;;;;;;4971665;28;19918;-80
2022/10/27 00:09:24;;;;;;;2.38;2.05;;;9.00;99.90;;;;;;5000438;28;20213;-80
2022/10/27 00:11:49;;;;;;;1.88;1.67;;;9.00;99.90;;;;;;4983802;28;20034;-80
2022/10/27 00:14:15;;;;;;;5.45;2.30;;;9.10;99.90;;;;;;4974473;28;20034;-80
2022/10/27 00:16:41;;;;;;;6.68;2.13;;;9.20;99.90;;;;;;4976572;28;20462;-81
2022/10/27 00:19:07;;;;;;;4.18;2.10;;;9.20;99.90;;;;;;4981135;28;20061;-80
2022/10/27 00:21:35;;;;;;;1.50;1.40;;;9.10;99.90;;;;;;4982430;28;20425;-80
2022/10/27 00:24:00;;;;;;;1.57;1.47;;;9.10;99.90;;;;;;5003538;28;20046;-79
2022/10/27 00:26:26;;;;;;;3.70;1.98;;;9.20;99.90;;;;;;5003860;28;20290;-79
2022/10/27 00:28:53;;;;;;;2.20;1.85;;;9.30;99.90;;;;;;4990928;28;20033;-79
2022/10/27 00:31:20;;;;;;;2.13;1.67;;;9.30;99.90;;;;;;4980457;28;20041;-79
2022/10/27 00:33:48;;;;;;;1.60;1.50;;;9.40;99.90;;;;;;4972860;28;20473;-80
2022/10/27 00:36:19;;;;;;;3.78;2.40;;;9.40;99.90;;;;;;4974623;28;20509;-80
2022/10/27 00:38:45;;;;;;;21.20;3.60;;;9.40;99.90;;;;;;4982529;28;20039;-80
2022/10/27 00:41:28;;;;;;;7.82;1.83;;;9.30;99.90;;;;;;4992678;28;20431;-79
2022/10/27 00:43:56;;;;;;;1.95;1.85;;;9.20;99.90;;;;;;4973403;28;20031;-80
2022/10/27 00:46:25;;;;;;;3.50;1.90;;;9.20;99.90;;;;;;4977320;28;20045;-80
2022/10/27 00:48:58;;;;;;;2.55;1.98;;;9.30;99.90;;;;;;4975765;28;20113;-80
2022/10/27 00:51:25;;;;;;;5.05;2.05;;;9.30;99.90;;;;;;4974100;28;20027;-79
2022/10/27 00:53:51;;;;;;;2.55;1.70;;;9.30;99.90;;;;;;4978007;28;20065;-79
2022/10/27 00:56:18;;;;;;;7.72;1.88;;;9.40;99.90;;;;;;4975335;28;20086;-79
2022/10/27 00:58:45;;;;;;;3.08;1.60;;;9.30;99.90;;;;;;4975957;28;20027;-80
2022/10/27 01:01:14;;;;;;;2.40;1.55;;;9.30;99.90;;;;;;4976290;28;20070;-80
2022/10/27 01:03:41;;;;;;;2.55;1.42;;;9.30;99.90;;;;;;4977442;28;20113;-80
2022/10/27 01:06:08;;;;;;;1.40;1.30;;;9.40;99.90;;;;;;4982745;28;20055;-80
2022/10/27 01:08:35;;;;;;;1.65;1.55;;;9.30;99.90;;;;;;4979951;28;20062;-80
2022/10/27 01:11:01;;;;;;;3.38;2.25;;;9.30;99.90;;;;;;4973831;28;20063;-81
2022/10/27 01:13:26;;;;;;;1.95;1.38;;;9.30;99.90;;;;;;5000042;28;20035;-81
2022/10/27 01:16:11;;;;;;;1.55;1.30;;;9.30;99.90;;;;;;4979537;28;20443;-81
2022/10/27 01:19:14;;;;;;;2.58;1.50;;;9.30;99.90;;;;;;4975411;28;20041;-81
2022/10/27 01:22:07;;;;;;;1.40;1.30;;;9.30;99.90;;;;;;4983336;28;20032;-80
2022/10/27 01:24:58;;;;;;;1.38;1.27;;;9.20;99.90;;;;;;4977373;28;20022;-80
2022/10/27 01:28:08;;;;;;;1.42;1.33;;;9.20;99.90;;;;;;4976840;28;20092;-80
2022/10/27 01:30:52;;;;;;;2.05;1.27;;;9.20;99.90;;;;;;4976368;28;20061;-79
2022/10/27 01:33:24;;;;;;;2.75;1.42;;;9.10;99.90;;;;;;4975789;28;20172;-79
2022/10/27 01:35:57;;;;;;;5.18;1.65;;;8.80;99.90;;;;;;4974239;28;20042;-80
2022/10/27 01:38:30;;;;;;;4.32;1.75;;;8.70;99.90;;;;;;4969189;28;20475;-79
2022/10/27 01:41:15;;;;;;;1.83;1.50;;;8.70;99.90;;;;;;4976626;28;20030;-79
2022/10/27 01:43:41;;;;;;;2.78;1.30;;;8.70;99.90;;;;;;4975294;28;20035;-79
2022/10/27 01:46:08;;;;;;;2.83;1.40;;;8.60;99.90;;;;;;4974004;28;20609;-80
2022/10/27 01:48:38;;;;;;;1.40;1.30;;;8.60;99.90;;;;;;4976098;28;20027;-80
2022/10/27 01:51:05;;;;;;;2.97;1.83;;;8.60;99.90;;;;;;4977543;28;20043;-81
2022/10/27 01:53:35;;;;;;;10.30;2.20;;;8.60;99.90;;;;;;4978887;28;20380;-80
2022/10/27 01:56:03;;;;;;;5.18;1.92;;;8.50;99.90;;;;;;4974514;28;20046;-78
2022/10/27 01:58:55;;;;;;;3.90;1.85;;;8.60;99.90;;;;;;4975774;28;20118;-80
2022/10/27 02:01:41;;;;;;;1.70;1.60;;;8.60;99.90;;;;;;4974218;28;20050;-79
2022/10/27 02:04:16;;;;;;;1.50;1.40;;;8.50;99.90;;;;;;4974737;28;20058;-79
2022/10/27 02:07:11;;;;;;;2.55;1.60;;;8.50;99.90;;;;;;4989641;28;20046;-79
2022/10/27 02:09:46;;;;;;;1.40;1.30;;;8.60;99.90;;;;;;4995979;28;20092;-80
2022/10/27 02:12:24;;;;;;;2.95;1.65;;;8.60;99.90;;;;;;4992164;28;20552;-79
2022/10/27 02:14:52;;;;;;;2.60;1.77;;;8.50;99.90;;;;;;5006127;28;20046;-80
2022/10/27 02:17:21;;;;;;;2.60;1.40;;;8.40;99.90;;;;;;4993984;28;20498;-80
2022/10/27 02:19:51;;;;;;;2.28;1.70;;;8.40;99.90;;;;;;4994087;28;20027;-80
2022/10/27 02:22:17;;;;;;;1.90;1.80;;;8.40;99.90;;;;;;4995912;28;20053;-81
2022/10/27 02:24:43;;;;;;;1.73;1.63;;;8.50;99.90;;;;;;4996326;28;20039;-81
2022/10/27 02:27:19;;;;;;;1.75;1.45;;;8.50;99.90;;;;;;5003050;28;20040;-79
2022/10/27 02:29:48;;;;;;;4.93;1.90;;;8.50;99.90;;;;;;4994845;28;20046;-80
2022/10/27 02:32:23;;;;;;;;;;;8.40;99.90;;;;;;4999027;28;20054;-83
2022/10/27 02:34:50;;;;;;;1.30;1.20;;;8.20;99.90;;;;;;5002918;28;19921;-81
2022/10/27 02:37:30;;;;;;;1.30;1.30;;;8.30;99.90;;;;;;5002644;28;20378;-81
2022/10/27 02:39:56;;;;;;;1.15;1.15;;;8.30;99.90;;;;;;4997045;28;20057;-81
2022/10/27 02:42:22;;;;;;;1.50;1.40;;;8.30;99.90;;;;;;4996746;28;20018;-81
2022/10/27 02:44:51;;;;;;;1.42;1.20;;;8.10;99.90;;;;;;4995260;28;20664;-80
2022/10/27 02:47:17;;;;;;;1.20;1.20;;;8.10;99.90;;;;;;4996569;28;20141;-80
2022/10/27 02:49:45;;;;;;;1.77;1.30;;;8.20;99.90;;;;;;4993865;28;20043;-79
2022/10/27 02:52:11;;;;;;;1.65;1.55;;;8.20;99.90;;;;;;4983602;28;20120;-83
2022/10/27 02:54:37;;;;;;;2.33;1.45;;;8.10;99.90;;;;;;4996254;28;20494;-81
2022/10/27 02:57:08;;;;;;;33.53;3.17;;;8.00;99.90;;;;;;4978720;28;20142;-81
2022/10/27 02:59:37;;;;;;;54.85;4.85;;;7.80;99.90;;;;;;4995574;28;20065;-81
2022/10/27 03:02:03;;;;;;;2.15;1.30;;;7.40;99.90;;;;;;4982602;28;20062;-79
2022/10/27 03:04:29;;;;;;;2.50;1.52;;;7.40;99.90;;;;;;4989475;28;20054;-80
2022/10/27 03:07:03;;;;;;;1.40;1.30;;;7.50;99.90;;;;;;4983222;28;20050;-80
2022/10/27 03:09:31;;;;;;;1.67;1.50;;;7.60;99.90;;;;;;4985769;28;20414;-81
2022/10/27 03:12:01;;;;;;;1.77;1.58;;;7.60;99.90;;;;;;4986760;28;20458;-80
2022/10/27 03:14:26;;;;;;;3.33;1.70;;;7.60;99.90;;;;;;4998950;28;20061;-80
2022/10/27 03:17:02;;;;;;;2.88;1.80;;;7.70;99.90;;;;;;4988340;28;20038;-80
2022/10/27 03:19:28;;;;;;;5.47;1.88;;;7.70;99.90;;;;;;5005145;28;20030;-80
2022/10/27 03:22:14;;;;;;;1.73;1.63;;;7.80;99.90;;;;;;4988020;28;20042;-81
2022/10/27 03:24:40;;;;;;;1.33;1.25;;;7.70;99.90;;;;;;4983477;28;20038;-80
2022/10/27 03:27:06;;;;;;;1.45;1.38;;;7.60;99.90;;;;;;4980632;28;20040;-82
2022/10/27 03:29:32;;;;;;;1.40;1.30;;;7.70;99.90;;;;;;4984975;28;20022;-86
2022/10/27 03:32:13;;;;;;;2.63;1.27;;;7.70;99.90;;;;;;4999911;28;20046;-82
2022/10/27 03:34:39;;;;;;;2.65;1.30;;;7.70;99.90;;;;;;4989134;28;20058;-80
2022/10/27 03:37:07;;;;;;;1.48;1.38;;;7.80;99.90;;;;;;4994399;28;20037;-83
2022/10/27 03:39:39;;;;;;;2.80;1.95;;;7.80;99.90;;;;;;5007131;28;20080;-82
2022/10/27 03:42:08;;;;;;;1.40;1.30;;;7.70;99.90;;;;;;5002095;28;20051;-79
2022/10/27 03:44:34;;;;;;;1.63;1.52;;;7.50;99.90;;;;;;4986915;28;20410;-78
2022/10/27 03:47:00;;;;;;;3.63;1.90;;;7.50;99.90;;;;;;5002214;28;20033;-81
2022/10/27 03:49:26;;;;;;;1.98;1.70;;;7.50;99.90;;;;;;5000323;28;20031;-82
2022/10/27 03:51:53;;;;;;;2.78;1.55;;;7.60;99.90;;;;;;4999513;28;20755;-80
2022/10/27 03:54:19;;;;;;;2.78;1.67;;;7.70;99.90;;;;;;4999611;28;20087;-82
2022/10/27 03:56:45;;;;;;;3.55;2.20;;;7.60;99.90;;;;;;4984103;28;20075;-80
2022/10/27 03:59:11;;;;;;;6.22;1.90;;;7.60;99.90;;;;;;4999394;28;20042;-80
2022/10/27 04:01:38;;;;;;;3.15;1.70;;;7.60;99.90;;;;;;4998136;28;20050;-85
2022/10/27 04:04:24;;;;;;;2.33;1.50;;;7.60;99.90;;;;;;4991145;28;20058;-79
2022/10/27 04:06:51;;;;;;;4.90;1.73;;;7.50;99.90;;;;;;4985122;28;20050;-80
2022/10/27 04:09:17;;;;;;;2.00;1.45;;;7.60;99.90;;;;;;5002548;28;20034;-82
2022/10/27 04:11:46;;;;;;;2.47;1.50;;;7.60;99.90;;;;;;5002369;28;20026;-80
2022/10/27 04:14:13;;;;;;;0.98;0.98;;;7.60;99.90;;;;;;5002227;28;20486;-80
2022/10/27 04:16:41;;;;;;;1.33;1.23;;;7.60;99.90;;;;;;5001158;28;20102;-80
2022/10/27 04:19:09;;;;;;;1.42;1.30;;;7.60;99.90;;;;;;5001233;28;20031;-81
2022/10/27 04:21:35;;;;;;;1.58;1.15;;;7.60;99.90;;;;;;5002399;28;20030;-80
2022/10/27 04:24:01;;;;;;;1.17;1.17;;;7.50;99.90;;;;;;5002702;28;20046;-80
2022/10/27 04:26:27;;;;;;;3.20;2.05;;;7.50;99.90;;;;;;4992467;28;20030;-80
2022/10/27 04:28:53;;;;;;;1.92;1.67;;;7.40;99.90;;;;;;4988628;28;20049;-81
2022/10/27 04:31:19;;;;;;;2.03;1.60;;;7.50;99.90;;;;;;4999223;28;20070;-81
2022/10/27 04:33:49;;;;;;;5.18;2.00;;;7.50;99.90;;;;;;4988356;28;20458;-80
2022/10/27 04:36:15;;;;;;;1.85;1.75;;;7.50;99.90;;;;;;5007512;28;20046;-81
2022/10/27 04:38:42;;;;;;;2.20;1.63;;;7.40;99.90;;;;;;4979660;28;20121;-82
2022/10/27 04:41:09;;;;;;;5.50;1.98;;;7.40;99.90;;;;;;5000781;28;20037;-81
2022/10/27 04:43:38;;;;;;;3.10;1.70;;;7.30;99.90;;;;;;5003562;28;20164;-81
2022/10/27 04:46:18;;;;;;;;;;;;;;;;;;;;;
2022/10/27 04:48:44;;;;;;;2.92;2.00;;;7.30;99.90;;;;;;5000970;28;20109;-80
2022/10/27 04:51:10;;;;;;;1.63;1.52;;;7.30;99.90;;;;;;4991995;28;20034;-81
2022/10/27 04:53:43;;;;;;;3.58;1.48;;;6.90;99.90;;;;;;4984374;28;20049;-82
2022/10/27 04:56:09;;;;;;;1.30;1.30;;;6.90;99.90;;;;;;4994026;28;20042;-82
2022/10/27 04:58:41;;;;;;;1.10;1.10;;;7.00;99.90;;;;;;4985850;28;20041;-81
2022/10/27 05:01:14;;;;;;;1.50;1.40;;;7.10;99.90;;;;;;4987331;28;20069;-81
2022/10/27 05:03:47;;;;;;;2.67;1.40;;;7.10;99.90;;;;;;4990702;28;20029;-80
2022/10/27 05:06:15;;;;;;;15.85;1.85;;;7.00;99.90;;;;;;4987961;28;20079;-80
2022/10/27 05:08:47;;;;;;;1.25;1.15;;;6.90;99.90;;;;;;5003052;28;20054;-80
2022/10/27 05:11:16;;;;;;;1.20;1.10;;;6.80;99.90;;;;;;5008687;28;20069;-81
2022/10/27 05:13:47;;;;;;;1.77;1.48;;;6.80;99.90;;;;;;5014052;28;20022;-80
2022/10/27 05:16:17;;;;;;;2.60;1.60;;;6.90;99.90;;;;;;5002360;28;20051;-80
2022/10/27 05:18:55;;;;;;;2.60;1.65;;;7.00;99.90;;;;;;5001763;28;20662;-81
2022/10/27 05:21:31;;;;;;;3.05;2.60;;;7.00;99.90;;;;;;4999182;28;20050;-82
2022/10/27 05:23:59;;;;;;;5.50;2.20;;;7.00;99.90;;;;;;5001498;28;20045;-80
2022/10/27 05:26:31;;;;;;;3.47;2.20;;;7.00;99.90;;;;;;5000254;28;20030;-81
2022/10/27 05:29:21;;;;;;;4.50;3.15;;;7.00;99.90;;;;;;5003992;28;20049;-80
2022/10/27 05:31:59;;;;;;;4.53;3.05;;;7.00;99.90;;;;;;5000761;28;20106;-84
2022/10/27 05:34:54;;;;;;;4.93;1.92;;;6.90;99.90;;;;;;4997017;28;20034;-81
2022/10/27 05:37:20;;;;;;;1.75;1.65;;;7.00;99.90;;;;;;4980934;28;20038;-80
2022/10/27 05:40:00;;;;;;;1.65;1.40;;;7.00;99.90;;;;;;4981777;28;20026;-82
2022/10/27 05:43:02;;;;;;;1.42;1.40;;;7.00;99.90;;;;;;4997113;28;20043;-80
2022/10/27 05:45:29;;;;;;;1.60;1.48;;;7.00;99.90;;;;;;4995110;28;20056;-81
2022/10/27 05:48:06;;;;;;;1.83;1.70;;;6.90;99.90;;;;;;4999072;28;20034;-81
2022/10/27 05:51:08;;;;;;;4.47;2.10;;;6.90;99.90;;;;;;4983640;28;20362;-80
2022/10/27 05:53:34;;;;;;;3.63;2.38;;;6.90;99.90;;;;;;4999463;28;20049;-82
2022/10/27 05:56:03;;;;;;;2.72;2.30;;;6.90;99.90;;;;;;4994834;28;20082;-81
2022/10/27 05:58:28;;;;;;;3.38;2.00;;;6.90;99.90;;;;;;4998928;28;20034;-80
2022/10/27 06:01:02;;;;;;;3.53;2.03;;;6.90;99.90;;;;;;4995710;28;20070;-81
2022/10/27 06:03:31;;;;;;;4.22;2.00;;;6.90;99.90;;;;;;4997881;28;22096;-78
2022/10/27 06:06:01;;;;;;;2.50;2.10;;;7.00;99.90;;;;;;5000811;28;20045;-82
2022/10/27 06:08:27;;;;;;;3.80;2.05;;;7.00;99.90;;;;;;4996634;28;20530;-83
2022/10/27 06:10:53;;;;;;;3.75;2.78;;;7.00;99.90;;;;;;4994826;28;20034;-81
2022/10/27 06:13:18;;;;;;;5.60;2.90;;;7.00;99.90;;;;;;5001111;28;20037;-81
2022/10/27 06:15:44;;;;;;;5.78;2.88;;;7.00;99.90;;;;;;4992253;28;20046;-81
2022/10/27 06:18:13;;;;;;;5.82;2.72;;;7.10;99.90;;;;;;4997314;28;20109;-81
2022/10/27 06:20:43;;;;;;;4.13;2.95;;;7.10;99.90;;;;;;4993407;28;20387;-80
2022/10/27 06:23:08;;;;;;;9.20;2.90;;;7.10;99.90;;;;;;4992153;28;20442;-80
2022/10/27 06:25:37;;;;;;;20.90;7.35;;;7.10;99.90;;;;;;4994514;28;20023;-80
2022/10/27 06:28:03;;;;;;;15.02;5.95;;;7.10;99.90;;;;;;4995215;28;20034;-80
2022/10/27 06:30:29;;;;;;;11.95;5.40;;;7.10;99.90;;;;;;4986186;28;20027;-82
2022/10/27 06:32:55;;;;;;;18.50;5.25;;;7.10;99.90;;;;;;4997802;28;20474;-83
2022/10/27 06:35:24;;;;;;;7.57;4.43;;;7.00;99.90;;;;;;4998530;28;20058;-81
2022/10/27 06:37:57;;;;;;;16.27;3.85;;;6.90;99.90;;;;;;4989104;28;20065;-81
2022/10/27 06:40:26;;;;;;;9.32;3.58;;;6.80;99.90;;;;;;4981952;28;20047;-84
2022/10/27 06:42:52;;;;;;;6.30;3.10;;;6.70;99.90;;;;;;5000588;28;20181;-83
2022/10/27 06:45:40;;;;;;;5.07;2.72;;;6.80;99.90;;;;;;4998795;28;20074;-82
2022/10/27 06:48:07;;;;;;;4.45;3.05;;;6.80;99.90;;;;;;4984683;28;20033;-84
2022/10/27 06:50:34;;;;;;;3.38;2.28;;;6.80;99.90;;;;;;5000903;28;20164;-81
2022/10/27 06:53:01;;;;;;;4.28;2.80;;;6.70;99.90;;;;;;4983435;28;20088;-85
2022/10/27 06:55:30;;;;;;;4.15;2.45;;;6.70;99.90;;;;;;4983563;28;20034;-82
2022/10/27 06:57:56;;;;;;;2.53;2.00;;;6.70;99.90;;;;;;4997207;28;20049;-83
2022/10/27 07:00:25;;;;;;;2.25;2.13;;;6.70;99.90;;;;;;5000274;28;20050;-84
2022/10/27 07:02:51;;;;;;;2.00;1.88;;;6.80;99.90;;;;;;4996156;28;20078;-81
2022/10/27 07:05:18;;;;;;;2.78;2.05;;;6.80;99.90;;;;;;5000784;28;20038;-81
2022/10/27 07:07:51;;;;;;;2.25;2.05;;;6.80;99.90;;;;;;4997267;28;20062;-81
2022/10/27 07:10:19;;;;;;;2.47;2.20;;;6.90;99.90;;;;;;4999518;28;20021;-83
2022/10/27 07:13:10;;;;;;;2.88;2.35;;;6.80;99.90;;;;;;5009206;28;20022;-82
2022/10/27 07:15:38;;;;;;;2.63;2.40;;;6.80;99.90;;;;;;4995942;28;20046;-83
2022/10/27 07:18:06;;;;;;;6.60;3.15;;;6.90;99.90;;;;;;4996436;28;20030;-82
2022/10/27 07:20:33;;;;;;;;;;;7.00;99.90;;;;;;4993131;28;20038;-82
2022/10/27 07:22:59;;;;;;;4.53;3.00;;;7.10;99.90;;;;;;5002007;28;19951;-81
2022/10/27 07:25:32;;;;;;;9.63;3.40;;;7.20;99.90;;;;;;5000437;28;20038;-83
2022/10/27 07:28:03;;;;;;;7.40;3.30;;;7.20;99.90;;;;;;5001968;28;20036;-83
2022/10/27 07:30:32;;;;;;;7.13;3.67;;;7.30;99.90;;;;;;4997143;28;20018;-84
2022/10/27 07:32:58;;;;;;;6.38;3.80;;;7.50;99.90;;;;;;5003669;28;20123;-82
2022/10/27 07:35:25;;;;;;;6.95;4.00;;;7.50;99.90;;;;;;4984395;28;20030;-82
2022/10/27 07:37:52;;;;;;;9.05;3.63;;;7.60;99.90;;;;;;5002662;28;20038;-81
2022/10/27 07:40:25;;;;;;;9.00;3.70;;;7.60;99.90;;;;;;4998483;28;20058;-81
2022/10/27 07:42:58;;;;;;;6.50;4.15;;;7.70;99.90;;;;;;4998595;28;20039;-82
2022/10/27 07:45:26;;;;;;;7.53;3.70;;;7.90;99.90;;;;;;4999824;28;20035;-85
2022/10/27 07:47:56;;;;;;;5.88;3.67;;;8.00;99.90;;;;;;5003795;28;20051;-82
2022/10/27 07:50:28;;;;;;;6.13;4.18;;;8.20;99.90;;;;;;4996386;28;20522;-82
2022/10/27 07:52:54;;;;;;;5.68;3.92;;;8.40;99.90;;;;;;4989804;28;20034;-82
2022/10/27 07:55:22;;;;;;;6.20;3.80;;;8.40;99.90;;;;;;4993981;28;20027;-81
2022/10/27 07:58:04;;;;;;;5.75;3.58;;;8.60;99.90;;;;;;5005444;28;20049;-81
2022/10/27 08:00:32;;;;;;;5.38;3.45;;;8.60;99.90;;;;;;5003977;28;20030;-82
2022/10/27 08:03:08;;;;;;;6.75;3.80;;;8.70;99.90;;;;;;5001705;28;20055;-81
2022/10/27 08:05:35;;;;;;;10.75;3.88;;;8.90;99.90;;;;;;4990478;28;20034;-82
2022/10/27 08:08:03;;;;;;;6.57;3.70;;;9.00;99.90;;;;;;5003172;28;20130;-82
2022/10/27 08:10:31;;;;;;;5.22;3.90;;;9.20;99.90;;;;;;4996534;28;20107;-83
2022/10/27 08:12:57;;;;;;;7.43;4.03;;;9.40;99.90;;;;;;5003063;28;20065;-82
2022/10/27 08:15:23;;;;;;;11.27;4.25;;;9.60;99.90;;;;;;5006812;28;20492;-82
2022/10/27 08:17:54;;;;;;;6.97;4.07;;;9.70;99.90;;;;;;5004334;28;20026;-82
2022/10/27 08:20:21;;;;;;;5.75;4.45;;;9.90;99.90;;;;;;5001384;28;20057;-82
2022/10/27 08:22:54;;;;;;;8.00;4.15;;;10.00;99.90;;;;;;4995513;28;20062;-81
2022/10/27 08:25:23;;;;;;;7.65;4.15;;;10.20;99.90;;;;;;5001062;28;20363;-81
2022/10/27 08:27:55;;;;;;;7.30;4.18;;;10.30;99.90;;;;;;5013527;28;20223;-82
2022/10/27 08:30:22;;;;;;;7.13;4.00;;;10.50;99.90;;;;;;4999456;28;20023;-83
2022/10/27 08:32:48;;;;;;;7.50;4.30;;;10.60;99.90;;;;;;4999062;28;20035;-83
2022/10/27 08:35:15;;;;;;;6.20;4.45;;;10.80;99.90;;;;;;4997281;28;20042;-81
2022/10/27 08:37:41;;;;;;;8.05;4.25;;;11.00;99.90;;;;;;5009851;28;20010;-82
2022/10/27 08:40:08;;;;;;;7.88;4.60;;;11.20;99.90;;;;;;4994982;28;20035;-84
2022/10/27 08:42:46;;;;;;;6.90;3.92;;;11.30;99.90;;;;;;4999476;28;20045;-82
2022/10/27 08:45:21;;;;;;;9.25;3.90;;;11.50;99.90;;;;;;4999159;28;20038;-82
2022/10/27 08:47:47;;;;;;;7.03;3.53;;;11.70;99.90;;;;;;5009994;28;20130;-83
2022/10/27 08:50:15;;;;;;;6.10;3.92;;;11.90;99.90;;;;;;5003074;28;20026;-83
2022/10/27 08:52:50;;;;;;;4.10;3.37;;;12.00;99.90;;;;;;5000652;28;20026;-82
2022/10/27 08:55:27;;;;;;;7.60;3.65;;;12.20;99.90;;;;;;4995450;28;20042;-81
2022/10/27 08:58:16;;;;;;;5.97;3.72;;;12.30;99.90;;;;;;4998934;28;20030;-81
2022/10/27 09:00:58;;;;;;;7.00;3.55;;;12.50;99.90;;;;;;4997696;28;20058;-81
2022/10/27 09:03:54;;;;;;;7.88;4.05;;;12.70;99.90;;;;;;4999932;28;20030;-81
2022/10/27 09:06:25;;;;;;;5.47;3.20;;;12.80;99.90;;;;;;4995882;28;20042;-81
2022/10/27 09:09:00;;;;;;;9.80;3.78;;;13.00;99.90;;;;;;5001528;28;20037;-81
2022/10/27 09:11:38;;;;;;;6.78;3.30;;;13.10;99.90;;;;;;4996820;28;20031;-82
2022/10/27 09:14:33;;;;;;;5.47;3.20;;;13.40;99.90;;;;;;5003585;28;20034;-81
2022/10/27 09:17:16;;;;;;;5.20;3.30;;;13.50;99.90;;;;;;4950317;28;20081;-81
2022/10/27 09:20:10;;;;;;;5.05;3.63;;;13.70;99.90;;;;;;4988972;28;20161;-81
2022/10/27 09:22:40;;;;;;;5.20;3.45;;;13.90;99.90;;;;;;5003151;28;20031;-82
2022/10/27 09:25:15;;;;;;;4.32;2.70;;;14.10;99.90;;;;;;5004563;28;20031;-84
2022/10/27 09:27:42;;;;;;;5.10;2.53;;;14.20;99.90;;;;;;4994645;28;20116;-82
2022/10/27 09:30:14;;;;;;;2.78;2.50;;;14.30;99.90;;;;;;4999338;28;20030;-82
2022/10/27 09:32:46;;;;;;;5.57;2.35;;;14.50;99.90;;;;;;4997496;28;20133;-82
2022/10/27 09:35:16;;;;;;;4.30;2.60;;;14.50;99.90;;;;;;5005608;28;20039;-81
2022/10/27 09:37:43;;;;;;;4.15;2.20;;;14.70;99.90;;;;;;4987668;28;20046;-82
2022/10/27 09:40:31;;;;;;;3.70;2.10;;;14.90;99.90;;;;;;5000832;28;20142;-81
2022/10/27 09:43:04;;;;;;;3.83;2.20;;;15.00;99.90;;;;;;5006719;28;20026;-83
2022/10/27 09:45:29;;;;;;;5.85;2.55;;;15.00;99.90;;;;;;4991523;28;20033;-82
2022/10/27 09:48:09;;;;;;;6.28;2.97;;;15.00;99.90;;;;;;4986888;28;20038;-81
2022/10/27 09:51:06;;;;;;;6.78;2.28;;;15.10;99.90;;;;;;4996229;28;20057;-82
2022/10/27 09:53:51;;;;;;;4.55;2.35;;;15.30;99.90;;;;;;4999896;28;20040;-82
2022/10/27 09:56:25;;;;;;;2.30;2.00;;;15.40;99.90;;;;;;4996936;28;20034;-82
2022/10/27 09:58:57;;;;;;;4.18;2.50;;;15.60;99.90;;;;;;4996068;28;20086;-83
2022/10/27 10:01:44;;;;;;;3.63;1.95;;;15.70;99.90;;;;;;5003994;28;20042;-83
2022/10/27 10:04:24;;;;;;;4.57;2.27;;;15.70;99.90;;;;;;4988683;28;20057;-82
2022/10/27 10:07:02;;;;;;;3.80;2.03;;;15.80;99.90;;;;;;5008128;28;20309;-83
2022/10/27 10:09:35;;;;;;;3.97;2.15;;;15.90;99.90;;;;;;5000850;28;20026;-82
2022/10/27 10:12:19;;;;;;;3.08;1.95;;;16.00;99.90;;;;;;5001462;28;20031;-83
2022/10/27 10:14:45;;;;;;;4.47;2.13;;;16.00;99.90;;;;;;5002656;28;20050;-81
2022/10/27 10:17:22;;;;;;;2.72;2.10;;;16.00;99.90;;;;;;5003483;28;20017;-82
2022/10/27 10:19:49;;;;;;;3.70;1.90;;;16.00;99.90;;;;;;5003232;28;20029;-81
2022/10/27 10:22:22;;;;;;;5.90;2.28;;;16.00;99.90;;;;;;5002760;28;20030;-81
2022/10/27 10:24:48;;;;;;;2.88;1.77;;;16.10;99.90;;;;;;4987450;28;20501;-82
2022/10/27 10:27:27;;;;;;;5.85;2.15;;;16.20;99.90;;;;;;5003976;28;20035;-80
2022/10/27 10:29:56;;;;;;;3.78;1.88;;;16.20;99.90;;;;;;5007092;28;20034;-81
2022/10/27 10:32:27;;;;;;;2.30;1.88;;;16.20;99.90;;;;;;4998498;28;20122;-82
2022/10/27 10:34:53;;;;;;;2.60;1.80;;;16.20;99.90;;;;;;4996709;28;20043;-81
2022/10/27 10:37:31;;;;;;;2.70;1.73;;;16.30;99.90;;;;;;4999522;28;20037;-83
2022/10/27 10:40:11;;;;;;;5.05;2.25;;;16.50;99.90;;;;;;4999508;28;20040;-80
2022/10/27 10:42:36;;;;;;;3.67;2.38;;;16.60;99.90;;;;;;5000118;28;20049;-82
2022/10/27 10:45:24;;;;;;;2.88;2.20;;;16.50;99.90;;;;;;5007811;28;20037;-82
2022/10/27 10:47:56;;;;;;;4.88;1.63;;;16.60;99.90;;;;;;5003103;28;20038;-81
2022/10/27 10:50:22;;;;;;;3.05;1.60;;;16.60;99.90;;;;;;4999786;28;20030;-81
2022/10/27 10:52:53;;;;;;;3.72;1.73;;;16.60;99.90;;;;;;4997454;28;20027;-83
2022/10/27 10:55:28;;;;;;;3.38;1.95;;;16.60;99.90;;;;;;4998640;28;20038;-81
2022/10/27 10:57:56;;;;;;;2.58;1.60;;;16.70;99.90;;;;;;4984616;28;20073;-81
2022/10/27 11:00:22;;;;;;;1.80;1.70;;;16.80;99.90;;;;;;5000530;28;20069;-82
2022/10/27 11:02:58;;;;;;;2.95;1.70;;;16.90;99.90;;;;;;5001993;28;20064;-82
2022/10/27 11:05:32;;;;;;;4.82;1.80;;;17.00;99.90;;;;;;5006892;28;20033;-82
2022/10/27 11:07:58;;;;;;;5.30;1.80;;;17.10;99.90;;;;;;4993078;28;20362;-85
2022/10/27 11:10:29;;;;;;;4.80;1.77;;;17.20;99.90;;;;;;5000287;28;20026;-81
2022/10/27 11:13:12;;;;;;;2.13;1.60;;;17.20;99.90;;;;;;5002496;28;20375;-83
2022/10/27 11:15:56;;;;;;;3.90;1.30;;;17.30;99.90;;;;;;4998551;28;20117;-83
2022/10/27 11:18:44;;;;;;;2.67;1.50;;;17.40;99.90;;;;;;4990485;28;20038;-82
2022/10/27 11:21:23;;;;;;;;;;;17.40;99.50;;;;;;4992064;28;20542;-81
2022/10/27 11:23:56;;;;;;;2.55;1.50;;;17.50;99.90;;;;;;4997244;28;19933;-81
2022/10/27 11:26:35;;;;;;;2.00;1.38;;;17.40;99.90;;;;;;5004181;28;20042;-80
2022/10/27 11:29:33;;;;;;;3.88;1.75;;;17.40;99.90;;;;;;4993207;28;20034;-80
2022/10/27 11:32:32;;;;;;;3.15;1.60;;;17.40;99.90;;;;;;4994859;28;20046;-80
2022/10/27 11:35:22;;;;;;;2.65;1.60;;;17.50;99.90;;;;;;4999786;28;20033;-81
2022/10/27 11:38:14;;;;;;;4.03;1.58;;;17.70;99.70;;;;;;4999447;28;20036;-80
2022/10/27 11:40:52;;;;;;;2.00;1.30;;;17.70;99.10;;;;;;5007851;28;20110;-80
2022/10/27 11:43:28;;;;;;;4.20;1.48;;;17.80;99.20;;;;;;4999867;28;20034;-81
2022/10/27 11:46:09;;;;;;;1.85;1.30;;;17.80;98.40;;;;;;5002499;28;20259;-81
2022/10/27 11:48:39;;;;;;;4.30;1.58;;;17.80;98.40;;;;;;5002891;28;20057;-80
2022/10/27 11:51:17;;;;;;;5.85;1.95;;;17.90;99.90;;;;;;4988474;28;20034;-80
2022/10/27 11:53:43;;;;;;;5.47;1.65;;;18.00;98.90;;;;;;5003425;28;20026;-80
2022/10/27 11:56:27;;;;;;;3.83;1.70;;;18.00;99.10;;;;;;5003325;28;20042;-81
2022/10/27 11:59:31;;;;;;;4.35;1.50;;;18.00;99.90;;;;;;5001747;28;20113;-81
2022/10/27 12:02:15;;;;;;;3.53;1.70;;;18.20;99.90;;;;;;4946594;29;20035;-80
2022/10/27 12:05:02;;;;;;;5.60;1.77;;;18.10;99.80;;;;;;5009995;28;20310;-81
2022/10/27 12:07:56;;;;;;;4.10;1.60;;;18.00;99.40;;;;;;4999911;28;20061;-80
2022/10/27 12:10:46;;;;;;;5.78;1.90;;;18.10;97.90;;;;;;5003717;28;20042;-80
2022/10/27 12:13:24;;;;;;;3.25;1.50;;;18.20;99.80;;;;;;5001743;28;20057;-81
2022/10/27 12:16:25;;;;;;;3.10;1.60;;;18.40;95.30;;;;;;4993537;28;20034;-81
2022/10/27 12:18:57;;;;;;;5.50;1.70;;;18.40;92.70;;;;;;5007022;28;20045;-81
2022/10/27 12:21:27;;;;;;;1.25;1.13;;;18.40;95.50;;;;;;5005209;28;20040;-80
2022/10/27 12:24:26;;;;;;;5.80;1.92;;;18.40;94.80;;;;;;4998713;28;20025;-82
2022/10/27 12:26:57;;;;;;;1.48;1.38;;;18.40;96.40;;;;;;4997636;28;20096;-82
2022/10/27 12:29:30;;;;;;;3.60;1.65;;;18.60;94.80;;;;;;5003401;28;20053;-82
2022/10/27 12:32:24;;;;;;;3.03;1.58;;;18.60;94.10;;;;;;4998516;28;20042;-81
2022/10/27 12:35:02;;;;;;;3.25;1.73;;;18.60;94.40;;;;;;5002130;28;20070;-81
2022/10/27 12:37:53;;;;;;;6.25;1.67;;;18.70;91.90;;;;;;5001075;28;20030;-82
2022/10/27 12:40:50;;;;;;;6.22;1.83;;;18.70;95.50;;;;;;4984034;28;20049;-82
2022/10/27 12:43:55;;;;;;;2.05;1.60;;;18.70;94.00;;;;;;5000576;28;20042;-81
2022/10/27 12:47:02;;;;;;;2.88;1.30;;;18.70;93.40;;;;;;4966389;28;20121;-82
2022/10/27 12:49:51;;;;;;;2.08;1.05;;;18.70;92.70;;;;;;5000145;28;20030;-79
2022/10/27 12:52:25;;;;;;;1.95;1.40;;;19.00;88.50;;;;;;5003311;28;20026;-79
2022/10/27 12:55:09;;;;;;;3.92;2.15;;;18.90;92.90;;;;;;5002903;28;20035;-80
2022/10/27 12:58:21;;;;;;;2.25;1.67;;;19.10;94.40;;;;;;4996297;28;20026;-79
2022/10/27 13:00:58;;;;;;;2.33;1.38;;;19.20;94.10;;;;;;4941243;29;20079;-82
2022/10/27 13:03:59;;;;;;;5.78;1.67;;;19.30;96.50;;;;;;4987224;28;20038;-80
2022/10/27 13:06:36;;;;;;;2.42;1.20;;;19.20;94.20;;;;;;4939571;29;20055;-80
2022/10/27 13:09:23;;;;;;;4.20;1.85;;;19.10;94.40;;;;;;4995254;28;20042;-82
2022/10/27 13:12:29;;;;;;;5.05;1.60;;;19.10;92.20;;;;;;5000232;28;20031;-79
2022/10/27 13:15:19;;;;;;;2.92;1.40;;;19.10;91.70;;;;;;4996041;28;20054;-80
2022/10/27 13:17:48;;;;;;;2.67;1.35;;;19.10;93.10;;;;;;4999602;28;20053;-81
2022/10/27 13:20:19;;;;;;;3.65;1.42;;;19.00;94.60;;;;;;5004274;28;20382;-80
2022/10/27 13:22:55;;;;;;;5.55;1.25;;;19.00;95.20;;;;;;4999318;28;20030;-81
2022/10/27 13:25:40;;;;;;;5.70;1.50;;;19.00;95.10;;;;;;5001987;28;20533;-82
2022/10/27 13:28:18;;;;;;;4.65;1.60;;;19.00;95.30;;;;;;5002347;28;20037;-80
2022/10/27 13:30:50;;;;;;;;;;;19.10;95.20;;;;;;4998394;28;20039;-82